createdAt,value
2017-09-25T00:01:30.029Z,25.62
2017-09-25T00:03:57.593Z,25.33
2017-09-25T00:06:25.122Z,20.95
2017-09-25T00:08:53.447Z,23.75
2017-09-25T00:11:20.989Z,21.98
2017-09-25T00:13:48.556Z,19.45
2017-09-25T00:16:16.085Z,22.83
2017-09-25T00:18:44.414Z,27.08
2017-09-25T00:21:11.935Z,23.80
2017-09-25T00:23:39.468Z,20.92
2017-09-25T00:26:07.804Z,23.52
2017-09-25T00:28:35.342Z,24.58
2017-09-25T00:31:02.895Z,22.15
2017-09-25T00:33:30.424Z,24.12
2017-09-25T00:35:57.979Z,20.92
2017-09-25T00:38:25.546Z,26.30
2017-09-25T00:40:53.873Z,24.52
2017-09-25T00:43:21.403Z,21.27
2017-09-25T00:45:48.969Z,23.02
2017-09-25T00:48:16.502Z,22.45
2017-09-25T00:50:44.086Z,21.45
2017-09-25T00:53:17.446Z,20.60
2017-09-25T00:55:51.705Z,25.10
2017-09-25T00:58:19.245Z,25.10
2017-09-25T01:00:59.199Z,25.98
2017-09-25T01:06:37.294Z,28.77
2017-09-25T01:09:05.571Z,26.95
2017-09-25T01:11:33.868Z,27.67
2017-09-25T01:14:01.386Z,26.65
2017-09-25T01:16:28.908Z,24.90
2017-09-25T01:18:56.440Z,29.77
2017-09-25T01:21:23.949Z,24.33
2017-09-25T01:23:51.485Z,33.53
2017-09-25T01:26:19.009Z,30.35
2017-09-25T01:28:46.544Z,30.60
2017-09-25T01:31:14.815Z,30.08
2017-09-25T01:33:44.129Z,29.15
2017-09-25T01:36:11.654Z,28.75
2017-09-25T01:38:39.185Z,29.08
2017-09-25T01:41:06.697Z,27.48
2017-09-25T01:43:37.448Z,31.15
2017-09-25T01:46:04.972Z,30.73
2017-09-25T01:48:32.504Z,35.42
2017-09-25T01:51:00.024Z,29.48
2017-09-25T01:53:27.556Z,33.15
2017-09-25T01:55:55.830Z,30.92
2017-09-25T01:58:24.129Z,30.65
2017-09-25T02:00:51.644Z,31.35
2017-09-25T02:03:19.173Z,30.40
2017-09-25T02:05:46.678Z,32.35
2017-09-25T02:08:14.220Z,30.60
2017-09-25T02:10:41.765Z,28.65
2017-09-25T02:13:09.280Z,34.10
2017-09-25T02:15:36.804Z,34.45
2017-09-25T02:18:04.312Z,32.63
2017-09-25T02:20:31.837Z,32.67
2017-09-25T02:22:59.353Z,37.25
2017-09-25T02:25:26.881Z,31.58
2017-09-25T02:27:54.393Z,36.05
2017-09-25T02:30:21.920Z,35.75
2017-09-25T02:32:49.428Z,33.72
2017-09-25T02:35:17.718Z,33.72
2017-09-25T02:37:45.991Z,38.85
2017-09-25T02:40:14.294Z,31.08
2017-09-25T02:42:41.800Z,34.63
2017-09-25T02:45:09.336Z,30.95
2017-09-25T02:47:36.839Z,34.85
2017-09-25T02:50:05.138Z,35.70
2017-09-25T02:52:32.633Z,33.17
2017-09-25T02:55:00.156Z,34.53
2017-09-25T02:57:27.664Z,38.45
2017-09-25T02:59:55.192Z,36.00
2017-09-25T03:02:22.694Z,37.65
2017-09-25T03:04:50.195Z,30.25
2017-09-25T03:07:17.712Z,32.08
2017-09-25T03:09:45.980Z,31.40
2017-09-25T03:12:13.503Z,36.97
2017-09-25T03:14:41.011Z,33.15
2017-09-25T03:17:09.292Z,36.45
2017-09-25T03:19:37.565Z,29.73
2017-09-25T03:22:05.861Z,32.42
2017-09-25T03:24:33.365Z,39.05
2017-09-25T03:27:00.887Z,36.38
2017-09-25T03:29:28.385Z,31.70
2017-09-25T03:31:55.900Z,34.33
2017-09-25T03:34:23.404Z,31.87
2017-09-25T03:36:50.922Z,32.92
2017-09-25T03:39:18.425Z,30.92
2017-09-25T03:41:45.944Z,26.98
2017-09-25T03:44:13.440Z,33.13
2017-09-25T03:46:40.965Z,36.50
2017-09-25T03:49:08.465Z,34.97
2017-09-25T03:51:35.981Z,36.65
2017-09-25T03:54:03.484Z,32.53
2017-09-25T03:56:31.765Z,31.83
2017-09-25T03:59:00.052Z,37.35
2017-09-25T04:01:28.324Z,34.45
2017-09-25T04:03:56.606Z,35.13
2017-09-25T04:06:24.873Z,35.00
2017-09-25T04:08:53.177Z,31.77
2017-09-25T04:11:20.701Z,35.15
2017-09-25T04:13:48.991Z,38.78
2017-09-25T04:16:17.256Z,36.92
2017-09-25T04:18:45.558Z,40.40
2017-09-25T04:21:13.062Z,38.17
2017-09-25T04:23:40.576Z,37.65
2017-09-25T04:26:08.082Z,36.22
2017-09-25T04:28:35.607Z,36.30
2017-09-25T04:31:03.114Z,39.35
2017-09-25T04:33:30.640Z,42.28
2017-09-25T04:35:58.148Z,43.03
2017-09-25T04:38:25.683Z,44.03
2017-09-25T04:40:53.193Z,37.42
2017-09-25T04:43:20.722Z,48.25
2017-09-25T04:45:48.988Z,45.58
2017-09-25T04:48:17.261Z,41.72
2017-09-25T04:50:44.784Z,43.35
2017-09-25T04:53:12.294Z,48.40
2017-09-25T04:55:39.824Z,42.80
2017-09-25T04:58:07.329Z,45.45
2017-09-25T05:00:34.861Z,39.33
2017-09-25T05:03:03.133Z,45.15
2017-09-25T05:05:30.661Z,47.20
2017-09-25T05:07:58.169Z,42.58
2017-09-25T05:10:25.702Z,43.17
2017-09-25T05:12:53.979Z,44.80
2017-09-25T05:15:21.510Z,45.20
2017-09-25T05:17:49.017Z,43.67
2017-09-25T05:20:16.554Z,47.70
2017-09-25T05:22:44.823Z,52.45
2017-09-25T05:25:12.358Z,46.00
2017-09-25T05:27:39.878Z,47.20
2017-09-25T05:30:07.400Z,49.05
2017-09-25T05:32:34.910Z,59.78
2017-09-25T05:35:02.487Z,61.60
2017-09-25T05:37:30.658Z,59.55
2017-09-25T05:39:58.173Z,60.60
2017-09-25T05:42:26.465Z,57.45
2017-09-25T05:44:53.969Z,51.88
2017-09-25T05:47:21.501Z,52.53
2017-09-25T05:49:49.010Z,61.67
2017-09-25T05:52:17.330Z,57.35
2017-09-25T05:54:44.853Z,54.88
2017-09-25T05:57:13.153Z,60.25
2017-09-25T05:59:40.667Z,55.30
2017-09-25T06:02:08.197Z,52.30
2017-09-25T06:04:35.729Z,53.65
2017-09-25T06:07:03.266Z,57.65
2017-09-25T06:09:30.804Z,52.97
2017-09-25T06:11:58.353Z,50.22
2017-09-25T06:14:25.879Z,47.42
2017-09-25T06:16:53.421Z,59.15
2017-09-25T06:19:20.949Z,55.85
2017-09-25T06:21:49.246Z,60.72
2017-09-25T06:24:16.770Z,59.03
2017-09-25T06:26:45.070Z,55.28
2017-09-25T06:29:12.587Z,53.15
2017-09-25T06:31:40.468Z,49.22
2017-09-25T06:34:08.051Z,49.42
2017-09-25T06:36:35.570Z,49.13
2017-09-25T06:39:03.105Z,55.40
2017-09-25T06:41:30.623Z,53.75
2017-09-25T06:43:59.109Z,51.65
2017-09-25T06:46:26.913Z,47.03
2017-09-25T06:48:55.251Z,50.87
2017-09-25T06:51:22.770Z,53.85
2017-09-25T06:53:50.313Z,49.83
2017-09-25T06:56:17.821Z,48.58
2017-09-25T06:58:46.126Z,48.20
2017-09-25T07:01:13.641Z,43.20
2017-09-25T07:03:41.963Z,46.80
2017-09-25T07:06:09.491Z,44.53
2017-09-25T07:08:37.045Z,41.85
2017-09-25T07:11:04.566Z,51.58
2017-09-25T07:13:32.101Z,53.50
2017-09-25T07:15:59.608Z,47.78
2017-09-25T07:18:27.145Z,51.60
2017-09-25T07:20:54.645Z,54.20
2017-09-25T07:23:22.941Z,52.13
2017-09-25T07:25:50.455Z,50.28
2017-09-25T07:28:18.749Z,53.93
2017-09-25T07:30:47.062Z,48.17
2017-09-25T07:33:14.570Z,42.40
2017-09-25T07:35:42.881Z,46.40
2017-09-25T07:38:10.410Z,45.40
2017-09-25T07:40:38.715Z,46.90
2017-09-25T07:43:06.234Z,48.30
2017-09-25T07:45:33.769Z,45.33
2017-09-25T07:48:01.284Z,45.35
2017-09-25T07:50:28.829Z,37.22
2017-09-25T07:52:57.241Z,42.43
2017-09-25T07:55:24.788Z,44.60
2017-09-25T07:57:52.299Z,40.70
2017-09-25T08:00:19.843Z,37.97
2017-09-25T08:02:47.360Z,44.63
2017-09-25T08:05:14.896Z,32.00
2017-09-25T08:07:43.182Z,36.78
2017-09-25T08:10:10.716Z,34.72
2017-09-25T08:12:38.275Z,38.92
2017-09-25T08:15:05.797Z,34.50
2017-09-25T08:17:33.304Z,43.37
2017-09-25T08:20:00.828Z,31.62
2017-09-25T08:22:28.363Z,37.08
2017-09-25T08:24:55.892Z,34.67
2017-09-25T08:27:23.426Z,36.40
2017-09-25T08:29:51.715Z,35.42
2017-09-25T08:32:20.028Z,29.00
2017-09-25T08:34:47.551Z,22.90
2017-09-25T08:37:15.854Z,29.00
2017-09-25T08:39:43.374Z,28.23
2017-09-25T08:42:10.897Z,23.40
2017-09-25T08:44:38.405Z,28.63
2017-09-25T08:47:05.934Z,25.90
2017-09-25T08:49:33.446Z,33.13
2017-09-25T08:52:00.968Z,25.70
2017-09-25T08:54:29.242Z,24.43
2017-09-25T08:56:56.779Z,24.33
2017-09-25T08:59:24.293Z,23.37
2017-09-25T09:01:51.825Z,27.73
2017-09-25T09:04:20.110Z,23.83
2017-09-25T09:06:48.405Z,26.90
2017-09-25T09:09:15.922Z,29.20
2017-09-25T09:11:43.437Z,24.77
2017-09-25T09:14:10.971Z,28.33
2017-09-25T09:16:38.504Z,24.80
2017-09-25T09:19:06.802Z,25.10
2017-09-25T09:21:35.071Z,25.60
2017-09-25T09:24:02.639Z,25.23
2017-09-25T09:26:30.154Z,26.47
2017-09-25T09:28:57.687Z,24.03
2017-09-25T09:31:25.198Z,22.80
2017-09-25T09:33:54.422Z,22.40
2017-09-25T09:36:21.944Z,22.93
2017-09-25T09:38:50.503Z,21.07
2017-09-25T09:41:18.070Z,25.07
2017-09-25T09:43:49.408Z,18.70
2017-09-25T09:46:16.964Z,19.43
2017-09-25T09:48:44.519Z,21.80
2017-09-25T09:51:12.086Z,22.73
2017-09-25T09:53:40.478Z,26.37
2017-09-25T09:56:08.024Z,23.03
2017-09-25T09:58:35.635Z,21.57
2017-09-25T10:01:03.151Z,22.33
2017-09-25T10:03:34.229Z,22.77
2017-09-25T10:06:01.758Z,19.47
2017-09-25T10:08:30.126Z,18.17
2017-09-25T10:10:57.774Z,15.77
2017-09-25T10:13:32.757Z,20.10
2017-09-25T10:16:00.304Z,19.13
2017-09-25T10:18:27.809Z,20.70
2017-09-25T10:20:55.350Z,20.10
2017-09-25T10:23:22.868Z,16.27
2017-09-25T10:25:51.166Z,13.90
2017-09-25T10:28:19.433Z,13.53
2017-09-25T10:30:47.734Z,14.40
2017-09-25T10:33:15.242Z,15.83
2017-09-25T10:35:42.770Z,20.43
2017-09-25T10:38:10.281Z,14.10
2017-09-25T10:40:37.809Z,16.13
2017-09-25T10:43:05.327Z,11.23
2017-09-25T10:45:32.870Z,11.53
2017-09-25T10:48:01.144Z,16.00
2017-09-25T10:50:29.450Z,16.50
2017-09-25T10:52:56.956Z,15.97
2017-09-25T10:55:24.496Z,15.67
2017-09-25T10:57:52.022Z,12.43
2017-09-25T11:00:19.548Z,16.07
2017-09-25T11:02:48.281Z,19.30
2017-09-25T11:05:15.805Z,18.47
2017-09-25T11:07:43.346Z,16.43
2017-09-25T11:10:11.651Z,18.10
2017-09-25T11:12:39.182Z,22.30
2017-09-25T11:15:06.706Z,20.70
2017-09-25T11:17:34.225Z,18.60
2017-09-25T11:20:01.749Z,17.30
2017-09-25T11:22:29.277Z,17.37
2017-09-25T11:24:56.784Z,17.97
2017-09-25T11:27:24.324Z,18.63
2017-09-25T11:29:51.820Z,18.20
2017-09-25T11:32:20.076Z,15.40
2017-09-25T11:34:47.817Z,21.40
2017-09-25T11:37:15.368Z,23.73
2017-09-25T11:39:42.891Z,19.00
2017-09-25T11:42:10.918Z,25.27
2017-09-25T11:44:38.681Z,23.53
2017-09-25T11:47:06.236Z,22.80
2017-09-25T11:49:34.509Z,25.87
2017-09-25T11:52:02.833Z,21.10
2017-09-25T11:54:30.344Z,16.23
2017-09-25T11:56:57.888Z,18.03
2017-09-25T11:59:25.456Z,20.30
2017-09-25T12:01:52.951Z,21.30
2017-09-25T12:04:20.478Z,19.90
2017-09-25T12:06:48.756Z,23.80
2017-09-25T12:09:17.049Z,20.93
2017-09-25T12:11:44.561Z,21.20
2017-09-25T12:14:12.100Z,17.43
2017-09-25T12:16:39.689Z,19.57
2017-09-25T12:19:07.278Z,19.30
2017-09-25T12:21:35.546Z,21.87
2017-09-25T12:24:03.873Z,22.07
2017-09-25T12:26:31.379Z,19.13
2017-09-25T12:28:59.704Z,17.30
2017-09-25T12:31:27.208Z,18.30
2017-09-25T12:33:54.728Z,19.80
2017-09-25T12:36:22.233Z,19.30
2017-09-25T12:38:50.532Z,21.33
2017-09-25T12:41:18.095Z,17.20
2017-09-25T12:43:45.668Z,17.30
2017-09-25T12:46:13.213Z,19.13
2017-09-25T12:48:40.810Z,16.30
2017-09-25T12:51:08.344Z,22.10
2017-09-25T12:53:35.876Z,16.00
2017-09-25T12:56:03.437Z,16.70
2017-09-25T12:58:30.966Z,17.00
2017-09-25T13:00:58.489Z,16.43
2017-09-25T13:03:27.008Z,19.23
2017-09-25T13:05:54.558Z,15.57
2017-09-25T13:08:22.077Z,19.03
2017-09-25T13:10:49.643Z,21.07
2017-09-25T13:13:17.160Z,17.13
2017-09-25T13:15:45.253Z,18.43
2017-09-25T13:18:12.769Z,13.93
2017-09-25T13:20:40.308Z,17.47
2017-09-25T13:23:10.768Z,14.33
2017-09-25T13:25:38.309Z,17.07
2017-09-25T13:28:06.289Z,16.20
2017-09-25T13:30:33.822Z,18.60
2017-09-25T13:33:01.329Z,12.70
2017-09-25T13:35:28.874Z,14.73
2017-09-25T13:37:57.160Z,16.43
2017-09-25T13:40:25.453Z,14.27
2017-09-25T13:42:52.961Z,15.57
2017-09-25T13:45:20.466Z,16.37
2017-09-25T13:47:48.125Z,12.97
2017-09-25T13:50:15.653Z,13.57
2017-09-25T13:52:43.940Z,12.33
2017-09-25T13:55:12.228Z,17.07
2017-09-25T13:57:39.777Z,18.60
2017-09-25T14:02:40.947Z,12.70
2017-09-25T14:05:08.469Z,11.37
2017-09-25T14:07:35.993Z,12.77
2017-09-25T14:10:03.510Z,11.00
2017-09-25T14:12:31.032Z,10.77
2017-09-25T14:14:58.552Z,11.43
2017-09-25T14:17:26.097Z,11.87
2017-09-25T14:19:53.836Z,12.07
2017-09-25T14:22:21.352Z,10.43
2017-09-25T14:24:48.866Z,12.73
2017-09-25T14:27:16.387Z,12.83
2017-09-25T14:29:43.885Z,11.00
2017-09-25T14:32:12.177Z,13.17
2017-09-25T14:34:39.695Z,9.13
2017-09-25T14:37:07.225Z,11.80
2017-09-25T14:39:34.758Z,11.60
2017-09-25T14:42:02.296Z,9.90
2017-09-25T14:44:29.828Z,13.03
2017-09-25T14:46:57.346Z,13.10
2017-09-25T14:49:24.880Z,11.33
2017-09-25T14:51:52.490Z,10.10
2017-09-25T14:54:20.033Z,13.83
2017-09-25T14:56:47.567Z,11.10
2017-09-25T14:59:15.103Z,12.77
2017-09-25T15:01:42.641Z,10.87
2017-09-25T15:04:10.180Z,8.60
2017-09-25T15:06:37.700Z,10.63
2017-09-25T15:09:05.302Z,11.53
2017-09-25T15:11:33.641Z,10.70
2017-09-25T15:14:02.126Z,11.40
2017-09-25T15:16:29.754Z,9.60
2017-09-25T15:18:58.056Z,11.27
2017-09-25T15:21:25.586Z,16.67
2017-09-25T15:23:53.886Z,12.70
2017-09-25T15:26:21.403Z,13.90
2017-09-25T15:28:48.944Z,10.70
2017-09-25T15:31:16.484Z,10.63
2017-09-25T15:33:44.021Z,9.40
2017-09-25T15:36:11.666Z,9.87
2017-09-25T15:38:39.948Z,11.23
2017-09-25T15:41:13.761Z,10.10
2017-09-25T15:43:41.260Z,10.83
2017-09-25T15:46:15.344Z,13.10
2017-09-25T15:48:42.850Z,13.10
2017-09-25T15:51:16.340Z,10.10
2017-09-25T15:53:43.849Z,12.77
2017-09-25T15:56:17.150Z,9.07
2017-09-25T15:58:44.677Z,9.80
2017-09-25T16:01:12.196Z,8.13
2017-09-25T16:03:39.703Z,9.40
2017-09-25T16:06:07.990Z,9.97
2017-09-25T16:08:35.484Z,9.63
2017-09-25T16:11:03.193Z,11.10
2017-09-25T16:13:31.476Z,11.73
2017-09-25T16:15:59.773Z,12.03
2017-09-25T16:18:27.283Z,9.03
2017-09-25T16:20:54.799Z,9.20
2017-09-25T16:23:22.320Z,11.47
2017-09-25T16:25:49.847Z,12.37
2017-09-25T16:28:17.357Z,12.80
2017-09-25T16:30:44.880Z,22.57
2017-09-25T16:33:12.396Z,15.60
2017-09-25T16:35:39.921Z,9.87
2017-09-25T16:38:08.211Z,9.47
2017-09-25T16:40:35.719Z,11.70
2017-09-25T16:43:03.290Z,15.60
2017-09-25T16:45:30.801Z,13.50
2017-09-25T16:47:58.369Z,11.10
2017-09-25T16:50:26.013Z,11.93
2017-09-25T16:52:53.539Z,10.20
2017-09-25T16:55:22.581Z,10.00
2017-09-25T16:57:50.105Z,8.73
2017-09-25T17:00:17.626Z,10.30
2017-09-25T17:02:45.159Z,13.17
2017-09-25T17:05:12.674Z,12.13
2017-09-25T17:07:40.968Z,9.90
2017-09-25T17:10:09.252Z,10.87
2017-09-25T17:12:39.459Z,10.10
2017-09-25T17:15:07.010Z,10.60
2017-09-25T17:17:35.304Z,12.37
2017-09-25T17:20:02.842Z,11.87
2017-09-25T17:22:30.377Z,9.77
2017-09-25T17:24:57.885Z,12.30
2017-09-25T17:27:25.413Z,14.40
2017-09-25T17:29:52.917Z,11.17
2017-09-25T17:32:20.663Z,14.07
2017-09-25T17:34:48.289Z,11.27
2017-09-25T17:37:15.804Z,11.73
2017-09-25T17:39:43.343Z,10.30
2017-09-25T17:42:10.876Z,12.47
2017-09-25T17:44:38.629Z,11.63
2017-09-25T17:47:06.933Z,14.17
2017-09-25T17:49:34.496Z,11.97
2017-09-25T17:52:02.049Z,11.80
2017-09-25T17:54:29.622Z,14.90
2017-09-25T17:56:57.226Z,14.33
2017-09-25T17:59:24.788Z,12.43
2017-09-25T18:01:53.100Z,15.53
2017-09-25T18:04:20.626Z,11.30
2017-09-25T18:06:48.945Z,13.63
2017-09-25T18:09:17.397Z,12.87
2017-09-25T18:11:44.941Z,10.87
2017-09-25T18:14:12.459Z,17.40
2017-09-25T18:16:40.738Z,14.47
2017-09-25T18:19:09.049Z,9.87
2017-09-25T18:21:36.589Z,10.83
2017-09-25T18:24:04.157Z,12.47
2017-09-25T18:26:31.800Z,10.67
2017-09-25T18:28:59.361Z,11.50
2017-09-25T18:31:26.905Z,13.07
2017-09-25T18:33:55.205Z,12.90
2017-09-25T18:36:22.755Z,13.90
2017-09-25T18:38:50.276Z,12.97
2017-09-25T18:41:17.821Z,14.17
2017-09-25T18:43:45.354Z,11.77
2017-09-25T18:46:12.908Z,11.90
2017-09-25T18:48:40.465Z,13.60
2017-09-25T18:51:08.009Z,16.40
2017-09-25T18:53:35.545Z,11.87
2017-09-25T18:56:03.128Z,14.67
2017-09-25T18:58:30.651Z,14.97
2017-09-25T19:00:58.211Z,13.80
2017-09-25T19:03:25.783Z,15.00
2017-09-25T19:05:54.184Z,20.08
2017-09-25T19:08:21.904Z,22.23
2017-09-25T19:10:49.528Z,25.00
2017-09-25T19:13:17.116Z,18.43
2017-09-25T19:15:44.844Z,15.63
2017-09-25T19:18:12.509Z,14.63
2017-09-25T19:20:40.365Z,14.82
2017-09-25T19:23:07.980Z,17.27
2017-09-25T19:25:35.523Z,12.00
2017-09-25T19:28:03.109Z,13.50
2017-09-25T19:30:31.456Z,13.03
2017-09-25T19:33:00.027Z,13.37
2017-09-25T19:35:27.529Z,13.95
2017-09-25T19:37:55.090Z,13.33
2017-09-25T19:40:22.604Z,13.10
2017-09-25T19:42:50.149Z,13.37
2017-09-25T19:45:17.673Z,15.67
2017-09-25T19:51:15.841Z,12.30
2017-09-25T19:53:43.406Z,19.60
2017-09-25T19:56:11.668Z,16.30
2017-09-25T19:58:41.482Z,16.10
2017-09-25T20:01:09.760Z,17.50
2017-09-25T20:03:38.054Z,14.73
2017-09-25T20:06:05.575Z,14.30
2017-09-25T20:08:33.091Z,16.40
2017-09-25T20:11:03.053Z,15.77
2017-09-25T20:13:30.579Z,14.43
2017-09-25T20:16:14.740Z,14.93
2017-09-25T20:18:42.285Z,17.65
2017-09-25T20:21:09.790Z,15.38
2017-09-25T20:23:37.322Z,15.88
2017-09-25T20:26:04.833Z,16.12
2017-09-25T20:28:32.380Z,14.57
2017-09-25T20:31:00.658Z,15.07
2017-09-25T20:33:30.905Z,20.15
2017-09-25T20:35:58.429Z,15.80
2017-09-25T20:38:25.941Z,15.97
2017-09-25T20:40:58.282Z,17.60
2017-09-25T20:43:27.565Z,19.17
2017-09-25T20:45:55.864Z,17.12
2017-09-25T20:48:24.158Z,12.80
2017-09-25T20:50:51.699Z,14.87
2017-09-25T20:53:21.183Z,16.30
2017-09-25T20:55:48.720Z,19.65
2017-09-25T20:58:16.234Z,14.60
2017-09-25T21:00:43.761Z,19.10
2017-09-25T21:03:11.277Z,15.80
2017-09-25T21:05:38.804Z,19.08
2017-09-25T21:08:07.076Z,15.77
2017-09-25T21:10:35.372Z,18.20
2017-09-25T21:13:02.890Z,17.95
2017-09-25T21:15:30.406Z,18.15
2017-09-25T21:17:57.907Z,19.77
2017-09-25T21:20:25.432Z,18.40
2017-09-25T21:22:52.937Z,16.90
2017-09-25T21:25:20.440Z,21.50
2017-09-25T21:27:49.532Z,19.37
2017-09-25T21:30:17.039Z,18.98
2017-09-25T21:32:44.564Z,21.33
2017-09-25T21:35:12.300Z,23.77
2017-09-25T21:37:39.825Z,20.20
2017-09-25T21:40:07.324Z,21.05
2017-09-25T21:42:34.864Z,24.00
2017-09-25T21:45:03.139Z,23.95
2017-09-25T21:47:31.429Z,21.92
2017-09-25T21:49:58.932Z,23.30
2017-09-25T21:52:26.462Z,22.33
2017-09-25T21:54:53.967Z,24.75
2017-09-25T21:57:21.491Z,23.25
2017-09-25T21:59:49.002Z,23.23
2017-09-25T22:02:16.529Z,22.10
2017-09-25T22:04:44.045Z,20.52
2017-09-25T22:07:12.341Z,21.62
2017-09-25T22:09:39.846Z,23.87
2017-09-25T22:12:07.370Z,22.10
2017-09-25T22:14:34.877Z,33.15
2017-09-25T22:17:02.404Z,23.75
2017-09-25T22:19:29.913Z,22.48
2017-09-25T22:21:58.205Z,25.92
2017-09-25T22:24:25.734Z,24.50
2017-09-25T22:26:53.240Z,25.67
2017-09-25T22:29:20.752Z,22.62
2017-09-25T22:31:48.273Z,27.87
2017-09-25T22:34:15.783Z,26.27
2017-09-25T22:36:44.124Z,28.92
2017-09-25T22:39:11.624Z,24.70
2017-09-25T22:41:39.909Z,24.27
2017-09-25T22:44:11.035Z,20.65
2017-09-25T22:46:38.565Z,27.20
2017-09-25T22:49:06.068Z,27.98
2017-09-25T22:51:34.576Z,25.17
2017-09-25T22:54:02.097Z,24.12
2017-09-25T22:56:29.625Z,21.73
2017-09-25T22:58:57.132Z,24.08
2017-09-25T23:01:25.453Z,27.87
2017-09-25T23:03:57.698Z,22.25
2017-09-25T23:06:25.260Z,29.10
2017-09-25T23:08:52.814Z,24.42
2017-09-25T23:11:20.325Z,23.75
2017-09-25T23:13:47.875Z,22.27
2017-09-25T23:16:15.401Z,25.20
2017-09-25T23:18:42.966Z,28.27
2017-09-25T23:21:10.481Z,27.87
2017-09-25T23:23:39.369Z,26.33
2017-09-25T23:26:07.246Z,27.15
2017-09-25T23:28:35.136Z,24.30
2017-09-25T23:31:07.655Z,29.95
2017-09-25T23:33:35.238Z,32.40
2017-09-25T23:36:02.768Z,26.43
2017-09-25T23:38:30.372Z,25.85
2017-09-25T23:40:58.942Z,26.48
2017-09-25T23:43:26.585Z,33.28
2017-09-25T23:45:54.089Z,29.02
2017-09-25T23:48:22.381Z,27.62
2017-09-25T23:50:50.682Z,28.90
2017-09-25T23:53:20.179Z,34.78
2017-09-25T23:55:47.692Z,33.50
2017-09-25T23:58:15.211Z,30.17
